Main page
METAR-TAF:

METAR-TAF

Airports :

Garoua International Airport

Garoua, Cameroon

latitude: 09-20N, longitude: 013-23E, elevation: 242 m

Current weather observation

The report was made 7 hours and 41 minutes ago, at 14:00 UTC
Wind 13 kt from the West/Northwest
Temperature 32°C
Humidity 52%
Pressure 1012 hPa
Visibility 10 km or more
Few clouds at a height of 2000 ft
Few clouds at a height of 2300 ft, Cumulonimbus.

METAR: FKKR 051400Z 29013KT 9999 FEW020 FEW023CB 32/21 Q1012 NOSIG

Time: 22:41 (21:41 UTC)

Forecast

The report was made 16 hours and 41 minutes ago, at 05:00 UTC
Forecast valid from 05 at 06 UTC to 05 at 18 UTC
Wind 8 kt from the West/Northwest
Visibility 10 km or more
Scattered clouds at a height of 1600 ft

TAF: FKKR 050500Z 0506/0518 29008KT 9999 SCT016

Weather observations and forecasts of more than 4000 airports (METAR and TAF reports).

The available stations are represented by yellow and red dots on the map.

Hover mouse over dot to see the name of the station.

Then click to see weather observations and forecasts.

To change the map : click on the green buttons with a black cross to zoom in, on the green button with a dash to zoom out, or on the green arrows for adjacent maps.


METAR-TAF: